Ituzaingo, Argentina
Current Conditions -  °F | °C
As of 3:00 AM on Friday 19 Dec 2014 (Local Time) from SARP Reporting Station
Clear Clear  
Wind Chill: 23°   Ceiling: Unl
Heat Index: 23°   Visibility: 6mi
Dew Point: 17°   Wind: 6mph
Humidity: 69%   Direction: 110°ESE
Pressure: 29.8"   Gusts: NA
Location:  27.6°S, 56.68°W
Report Text: SARP 190600Z 11005KT CAVOK 23/17 Q1009
Loading
Personal Weather Stations






























Interactive Weather Map New forecast layout! Learn more

10-Day Weather Forecast

Advertisements
Track Severe Weather on mobile